Terminal Aerodrome Forecast
Issued by NWS

Home | Current Version | Previous Version | Text Only | Print | Product List | Glossary On
Versions: 1 2 3 4 5 6 7 8 9 10 11 12 13 14 15 16 17 18 19
333
FTUS46 KSTO 201740
TAFSAC
TAF
KSAC 201740Z 2018/2118 17016G26KT P6SM -SHRA BKN025 OVC050
     FM210000 20013KT P6SM -SHRA BKN050
     FM210600 17010KT P6SM -SHRA BKN050=

USA.gov is the U.S. government's official web portal to all federal, state and local government web resources and services.